sensor_id;sensor_type;location;lat;lon;timestamp;pressure;altitude;pressure_sealevel;temperature;humidity
53635;BME280;39542;-34.932;138.594;2023-05-11T00:00:09;101961.28;;;16.28;61.35
53635;BME280;39542;-34.932;138.594;2023-05-11T00:00:44;101962.41;;;16.30;61.30
53635;BME280;39542;-34.932;138.594;2023-05-11T00:01:18;101963.62;;;16.30;61.30
53635;BME280;39542;-34.932;138.594;2023-05-11T00:01:52;101962.15;;;16.31;61.29
53635;BME280;39542;-34.932;138.594;2023-05-11T00:02:26;101965.29;;;16.32;61.25
53635;BME280;39542;-34.932;138.594;2023-05-11T00:03:00;101963.27;;;16.32;61.26
53635;BME280;39542;-34.932;138.594;2023-05-11T00:03:35;101965.32;;;16.32;61.29
53635;BME280;39542;-34.932;138.594;2023-05-11T00:04:09;101962.34;;;16.32;61.18
53635;BME280;39542;-34.932;138.594;2023-05-11T00:04:44;101964.29;;;16.35;61.21
53635;BME280;39542;-34.932;138.594;2023-05-11T00:05:18;101968.75;;;16.34;61.23
53635;BME280;39542;-34.932;138.594;2023-05-11T00:05:52;101964.95;;;16.36;61.25
53635;BME280;39542;-34.932;138.594;2023-05-11T00:06:27;101966.00;;;16.34;61.21
53635;BME280;39542;-34.932;138.594;2023-05-11T00:07:01;101965.69;;;16.33;61.24
53635;BME280;39542;-34.932;138.594;2023-05-11T00:07:35;101967.98;;;16.31;61.31
53635;BME280;39542;-34.932;138.594;2023-05-11T00:08:10;101971.37;;;16.30;61.34
53635;BME280;39542;-34.932;138.594;2023-05-11T00:08:44;101972.56;;;16.33;61.27
53635;BME280;39542;-34.932;138.594;2023-05-11T00:09:19;101971.43;;;16.35;61.25
53635;BME280;39542;-34.932;138.594;2023-05-11T00:09:53;101971.15;;;16.36;61.26
53635;BME280;39542;-34.932;138.594;2023-05-11T00:10:28;101965.64;;;16.33;61.34
53635;BME280;39542;-34.932;138.594;2023-05-11T00:11:04;101971.20;;;16.33;61.34
53635;BME280;39542;-34.932;138.594;2023-05-11T00:11:39;101973.59;;;16.32;61.35
53635;BME280;39542;-34.932;138.594;2023-05-11T00:12:14;101974.59;;;16.34;61.28
53635;BME280;39542;-34.932;138.594;2023-05-11T00:12:48;101972.66;;;16.32;61.37
53635;BME280;39542;-34.932;138.594;2023-05-11T00:13:22;101975.10;;;16.33;61.35
53635;BME280;39542;-34.932;138.594;2023-05-11T00:13:56;101972.77;;;16.32;61.34
53635;BME280;39542;-34.932;138.594;2023-05-11T00:14:31;101974.18;;;16.32;61.34
53635;BME280;39542;-34.932;138.594;2023-05-11T00:15:06;101972.52;;;16.37;61.23
53635;BME280;39542;-34.932;138.594;2023-05-11T00:15:40;101972.31;;;16.33;61.37
53635;BME280;39542;-34.932;138.594;2023-05-11T00:16:15;101976.60;;;16.36;61.28
53635;BME280;39542;-34.932;138.594;2023-05-11T00:16:49;101978.27;;;16.35;61.29
53635;BME280;39542;-34.932;138.594;2023-05-11T00:17:24;101973.73;;;16.32;61.38
53635;BME280;39542;-34.932;138.594;2023-05-11T00:17:58;101972.47;;;16.33;61.38
53635;BME280;39542;-34.932;138.594;2023-05-11T00:18:32;101972.61;;;16.38;61.23
53635;BME280;39542;-34.932;138.594;2023-05-11T00:19:06;101975.63;;;16.37;61.27
53635;BME280;39542;-34.932;138.594;2023-05-11T00:19:41;101978.96;;;16.35;61.33
53635;BME280;39542;-34.932;138.594;2023-05-11T00:20:15;101977.69;;;16.37;61.29
53635;BME280;39542;-34.932;138.594;2023-05-11T00:20:49;101975.36;;;16.40;61.24
53635;BME280;39542;-34.932;138.594;2023-05-11T00:21:24;101976.52;;;16.40;61.22
53635;BME280;39542;-34.932;138.594;2023-05-11T00:21:58;101979.10;;;16.44;61.14
53635;BME280;39542;-34.932;138.594;2023-05-11T00:22:32;101976.29;;;16.46;61.05
53635;BME280;39542;-34.932;138.594;2023-05-11T00:23:06;101976.02;;;16.49;61.04
53635;BME280;39542;-34.932;138.594;2023-05-11T00:23:41;101978.25;;;16.45;61.08
53635;BME280;39542;-34.932;138.594;2023-05-11T00:24:15;101979.26;;;16.40;61.16
53635;BME280;39542;-34.932;138.594;2023-05-11T00:24:49;101980.68;;;16.40;61.18
53635;BME280;39542;-34.932;138.594;2023-05-11T00:25:24;101979.50;;;16.46;61.05
53635;BME280;39542;-34.932;138.594;2023-05-11T00:25:58;101977.26;;;16.49;61.00
53635;BME280;39542;-34.932;138.594;2023-05-11T00:26:32;101976.59;;;16.43;61.18
53635;BME280;39542;-34.932;138.594;2023-05-11T00:27:06;101980.08;;;16.44;61.08
53635;BME280;39542;-34.932;138.594;2023-05-11T00:27:41;101977.62;;;16.47;61.04
53635;BME280;39542;-34.932;138.594;2023-05-11T00:28:15;101976.43;;;16.48;61.03
53635;BME280;39542;-34.932;138.594;2023-05-11T00:28:49;101974.74;;;16.42;61.12
53635;BME280;39542;-34.932;138.594;2023-05-11T00:29:23;101972.48;;;16.46;61.09
53635;BME280;39542;-34.932;138.594;2023-05-11T00:29:58;101978.42;;;16.44;61.12
53635;BME280;39542;-34.932;138.594;2023-05-11T00:30:32;101978.43;;;16.40;61.19
53635;BME280;39542;-34.932;138.594;2023-05-11T00:31:06;101975.43;;;16.46;61.02
53635;BME280;39542;-34.932;138.594;2023-05-11T00:31:41;101978.00;;;16.46;61.05
53635;BME280;39542;-34.932;138.594;2023-05-11T00:32:15;101977.60;;;16.45;61.06
53635;BME280;39542;-34.932;138.594;2023-05-11T00:32:51;101978.99;;;16.44;61.08
53635;BME280;39542;-34.932;138.594;2023-05-11T00:33:25;101980.76;;;16.45;61.07
53635;BME280;39542;-34.932;138.594;2023-05-11T00:33:59;101982.46;;;16.46;61.05
53635;BME280;39542;-34.932;138.594;2023-05-11T00:34:33;101981.47;;;16.49;61.02
53635;BME280;39542;-34.932;138.594;2023-05-11T00:35:09;101981.41;;;16.47;60.97
53635;BME280;39542;-34.932;138.594;2023-05-11T00:35:43;101979.38;;;16.45;61.09
53635;BME280;39542;-34.932;138.594;2023-05-11T00:36:18;101980.01;;;16.46;61.01
53635;BME280;39542;-34.932;138.594;2023-05-11T00:36:52;101980.39;;;16.42;61.14
53635;BME280;39542;-34.932;138.594;2023-05-11T00:37:26;101979.84;;;16.44;61.15
53635;BME280;39542;-34.932;138.594;2023-05-11T00:38:00;101973.94;;;16.47;61.01
53635;BME280;39542;-34.932;138.594;2023-05-11T00:38:34;101975.79;;;16.50;60.97
53635;BME280;39542;-34.932;138.594;2023-05-11T00:39:10;101977.22;;;16.51;60.95
53635;BME280;39542;-34.932;138.594;2023-05-11T00:39:44;101979.23;;;16.49;61.02
53635;BME280;39542;-34.932;138.594;2023-05-11T00:40:19;101976.48;;;16.51;60.95
53635;BME280;39542;-34.932;138.594;2023-05-11T00:40:53;101975.86;;;16.49;60.97
53635;BME280;39542;-34.932;138.594;2023-05-11T00:41:27;101974.86;;;16.48;61.00
53635;BME280;39542;-34.932;138.594;2023-05-11T00:42:01;101974.26;;;16.46;60.99
53635;BME280;39542;-34.932;138.594;2023-05-11T00:42:35;101972.85;;;16.49;60.96
53635;BME280;39542;-34.932;138.594;2023-05-11T00:43:09;101973.19;;;16.49;61.00
53635;BME280;39542;-34.932;138.594;2023-05-11T00:43:44;101971.84;;;16.49;60.94
53635;BME280;39542;-34.932;138.594;2023-05-11T00:44:18;101970.24;;;16.54;60.88
53635;BME280;39542;-34.932;138.594;2023-05-11T00:44:52;101964.47;;;16.48;60.99
53635;BME280;39542;-34.932;138.594;2023-05-11T00:45:27;101970.97;;;16.52;60.94
53635;BME280;39542;-34.932;138.594;2023-05-11T00:46:02;101971.29;;;16.53;60.91
53635;BME280;39542;-34.932;138.594;2023-05-11T00:46:36;101969.67;;;16.56;60.86
53635;BME280;39542;-34.932;138.594;2023-05-11T00:47:11;101970.16;;;16.51;61.02
53635;BME280;39542;-34.932;138.594;2023-05-11T00:47:45;101970.92;;;16.53;61.01
53635;BME280;39542;-34.932;138.594;2023-05-11T00:48:19;101970.64;;;16.51;60.95
53635;BME280;39542;-34.932;138.594;2023-05-11T00:48:54;101974.55;;;16.50;61.06
53635;BME280;39542;-34.932;138.594;2023-05-11T00:49:29;101970.48;;;16.51;61.07
53635;BME280;39542;-34.932;138.594;2023-05-11T00:50:03;101970.31;;;16.50;61.07
53635;BME280;39542;-34.932;138.594;2023-05-11T00:50:38;101969.42;;;16.53;60.95
53635;BME280;39542;-34.932;138.594;2023-05-11T00:51:13;101970.95;;;16.55;60.94
53635;BME280;39542;-34.932;138.594;2023-05-11T00:51:47;101971.21;;;16.55;60.95
53635;BME280;39542;-34.932;138.594;2023-05-11T00:52:23;101971.23;;;16.53;60.99
53635;BME280;39542;-34.932;138.594;2023-05-11T00:52:58;101967.82;;;16.52;61.00
53635;BME280;39542;-34.932;138.594;2023-05-11T00:53:32;101965.51;;;16.46;61.13
53635;BME280;39542;-34.932;138.594;2023-05-11T00:54:07;101965.49;;;16.48;61.14
53635;BME280;39542;-34.932;138.594;2023-05-11T00:54:42;101963.26;;;16.50;61.05
53635;BME280;39542;-34.932;138.594;2023-05-11T00:55:17;101963.29;;;16.56;60.98
53635;BME280;39542;-34.932;138.594;2023-05-11T00:55:52;101961.70;;;16.52;61.04
53635;BME280;39542;-34.932;138.594;2023-05-11T00:56:27;101959.96;;;16.52;61.06
53635;BME280;39542;-34.932;138.594;2023-05-11T00:57:01;101963.02;;;16.52;61.07
53635;BME280;39542;-34.932;138.594;2023-05-11T00:57:36;101959.30;;;16.49;61.16
53635;BME280;39542;-34.932;138.594;2023-05-11T00:58:11;101963.56;;;16.47;61.21
53635;BME280;39542;-34.932;138.594;2023-05-11T00:58:45;101963.01;;;16.54;61.06
53635;BME280;39542;-34.932;138.594;2023-05-11T00:59:19;101963.56;;;16.49;61.15
53635;BME280;39542;-34.932;138.594;2023-05-11T00:59:54;101958.58;;;16.54;61.03
53635;BME280;39542;-34.932;138.594;2023-05-11T01:00:28;101960.19;;;16.51;61.11
53635;BME280;39542;-34.932;138.594;2023-05-11T01:01:02;101962.72;;;16.47;61.19
53635;BME280;39542;-34.932;138.594;2023-05-11T01:01:38;101960.94;;;16.52;61.13
53635;BME280;39542;-34.932;138.594;2023-05-11T01:02:13;101959.54;;;16.51;61.16
53635;BME280;39542;-34.932;138.594;2023-05-11T01:02:48;101960.25;;;16.52;61.05
53635;BME280;39542;-34.932;138.594;2023-05-11T01:03:22;101956.64;;;16.55;61.05
53635;BME280;39542;-34.932;138.594;2023-05-11T01:03:56;101957.74;;;16.58;61.00
53635;BME280;39542;-34.932;138.594;2023-05-11T01:04:31;101956.10;;;16.60;61.00
53635;BME280;39542;-34.932;138.594;2023-05-11T01:05:06;101955.79;;;16.60;61.08
53635;BME280;39542;-34.932;138.594;2023-05-11T01:05:43;101955.30;;;16.55;61.13
53635;BME280;39542;-34.932;138.594;2023-05-11T01:06:25;101954.54;;;16.55;61.09
53635;BME280;39542;-34.932;138.594;2023-05-11T01:07:08;101953.80;;;16.57;61.11
53635;BME280;39542;-34.932;138.594;2023-05-11T01:07:52;101952.41;;;16.50;61.22
53635;BME280;39542;-34.932;138.594;2023-05-11T01:08:38;101952.72;;;16.54;61.15
53635;BME280;39542;-34.932;138.594;2023-05-11T01:09:29;101953.08;;;16.59;61.09
53635;BME280;39542;-34.932;138.594;2023-05-11T01:10:10;101956.74;;;16.56;61.15
53635;BME280;39542;-34.932;138.594;2023-05-11T01:10:55;101955.69;;;16.55;61.15
53635;BME280;39542;-34.932;138.594;2023-05-11T01:11:40;101955.60;;;16.52;61.22
53635;BME280;39542;-34.932;138.594;2023-05-11T01:12:23;101956.21;;;16.50;61.30
53635;BME280;39542;-34.932;138.594;2023-05-11T01:13:07;101953.52;;;16.58;61.17
53635;BME280;39542;-34.932;138.594;2023-05-11T01:13:49;101953.12;;;16.60;61.12
53635;BME280;39542;-34.932;138.594;2023-05-11T01:14:29;101954.36;;;16.57;61.13
53635;BME280;39542;-34.932;138.594;2023-05-11T01:15:10;101951.84;;;16.55;61.17
53635;BME280;39542;-34.932;138.594;2023-05-11T01:15:50;101951.95;;;16.59;61.15
53635;BME280;39542;-34.932;138.594;2023-05-11T01:16:25;101948.76;;;16.59;61.13
53635;BME280;39542;-34.932;138.594;2023-05-11T01:17:04;101948.83;;;16.56;61.19
53635;BME280;39542;-34.932;138.594;2023-05-11T01:17:48;101946.17;;;16.59;61.12
53635;BME280;39542;-34.932;138.594;2023-05-11T01:18:29;101949.77;;;16.58;61.16
53635;BME280;39542;-34.932;138.594;2023-05-11T01:19:10;101950.40;;;16.61;61.20
53635;BME280;39542;-34.932;138.594;2023-05-11T01:19:50;101948.07;;;16.56;61.27
53635;BME280;39542;-34.932;138.594;2023-05-11T01:20:27;101948.78;;;16.56;61.26
53635;BME280;39542;-34.932;138.594;2023-05-11T01:21:03;101950.66;;;16.54;61.28
53635;BME280;39542;-34.932;138.594;2023-05-11T01:21:40;101947.65;;;16.58;61.20
53635;BME280;39542;-34.932;138.594;2023-05-11T01:22:30;101950.40;;;16.63;61.15
53635;BME280;39542;-34.932;138.594;2023-05-11T01:23:21;101945.41;;;16.55;61.33
53635;BME280;39542;-34.932;138.594;2023-05-11T01:24:21;101946.49;;;16.56;61.36
53635;BME280;39542;-34.932;138.594;2023-05-11T01:25:09;101947.73;;;16.57;61.33
53635;BME280;39542;-34.932;138.594;2023-05-11T01:26:02;101945.04;;;16.49;61.47
53635;BME280;39542;-34.932;138.594;2023-05-11T01:26:57;101944.24;;;16.55;61.41
53635;BME280;39542;-34.932;138.594;2023-05-11T01:27:52;101944.13;;;16.53;61.47
53635;BME280;39542;-34.932;138.594;2023-05-11T01:28:47;101945.57;;;16.56;61.41
53635;BME280;39542;-34.932;138.594;2023-05-11T01:29:57;101943.84;;;16.60;61.32
53635;BME280;39542;-34.932;138.594;2023-05-11T01:30:40;101938.96;;;16.52;61.49
53635;BME280;39542;-34.932;138.594;2023-05-11T01:31:18;101938.52;;;16.54;61.39
53635;BME280;39542;-34.932;138.594;2023-05-11T01:31:55;101940.59;;;16.61;61.32
53635;BME280;39542;-34.932;138.594;2023-05-11T01:32:31;101939.37;;;16.54;61.47
53635;BME280;39542;-34.932;138.594;2023-05-11T01:33:10;101938.55;;;16.53;61.58
53635;BME280;39542;-34.932;138.594;2023-05-11T01:33:50;101937.28;;;16.54;61.54
53635;BME280;39542;-34.932;138.594;2023-05-11T01:34:29;101937.21;;;16.61;61.39
53635;BME280;39542;-34.932;138.594;2023-05-11T01:35:07;101933.15;;;16.63;61.34
53635;BME280;39542;-34.932;138.594;2023-05-11T01:35:49;101935.31;;;16.59;61.43
53635;BME280;39542;-34.932;138.594;2023-05-11T01:36:27;101934.15;;;16.52;61.62
53635;BME280;39542;-34.932;138.594;2023-05-11T01:37:09;101934.93;;;16.57;61.44
53635;BME280;39542;-34.932;138.594;2023-05-11T01:37:48;101933.97;;;16.59;61.43
53635;BME280;39542;-34.932;138.594;2023-05-11T01:38:25;101928.69;;;16.63;61.40
53635;BME280;39542;-34.932;138.594;2023-05-11T01:39:06;101926.95;;;16.55;61.55
53635;BME280;39542;-34.932;138.594;2023-05-11T01:39:49;101928.64;;;16.58;61.53
53635;BME280;39542;-34.932;138.594;2023-05-11T01:40:27;101926.14;;;16.57;61.58
53635;BME280;39542;-34.932;138.594;2023-05-11T01:41:11;101924.98;;;16.65;61.45
53635;BME280;39542;-34.932;138.594;2023-05-11T01:41:52;101920.26;;;16.66;61.41
53635;BME280;39542;-34.932;138.594;2023-05-11T01:42:34;101921.62;;;16.58;61.61
53635;BME280;39542;-34.932;138.594;2023-05-11T01:43:12;101919.25;;;16.55;61.64
53635;BME280;39542;-34.932;138.594;2023-05-11T01:43:51;101914.12;;;16.60;61.52
53635;BME280;39542;-34.932;138.594;2023-05-11T01:44:30;101913.00;;;16.60;61.56
53635;BME280;39542;-34.932;138.594;2023-05-11T01:45:07;101913.40;;;16.62;61.48
53635;BME280;39542;-34.932;138.594;2023-05-11T01:45:46;101917.54;;;16.66;61.42
53635;BME280;39542;-34.932;138.594;2023-05-11T01:46:25;101914.97;;;16.63;61.46
53635;BME280;39542;-34.932;138.594;2023-05-11T01:47:01;101913.06;;;16.66;61.40
53635;BME280;39542;-34.932;138.594;2023-05-11T01:47:37;101912.28;;;16.61;61.59
53635;BME280;39542;-34.932;138.594;2023-05-11T01:48:17;101912.15;;;16.62;61.49
53635;BME280;39542;-34.932;138.594;2023-05-11T01:48:55;101911.52;;;16.65;61.47
53635;BME280;39542;-34.932;138.594;2023-05-11T01:49:31;101912.56;;;16.63;61.50
53635;BME280;39542;-34.932;138.594;2023-05-11T01:50:07;101913.22;;;16.68;61.43
53635;BME280;39542;-34.932;138.594;2023-05-11T01:50:43;101911.88;;;16.65;61.49
53635;BME280;39542;-34.932;138.594;2023-05-11T01:51:18;101913.36;;;16.63;61.54
53635;BME280;39542;-34.932;138.594;2023-05-11T01:51:54;101911.47;;;16.62;61.60
53635;BME280;39542;-34.932;138.594;2023-05-11T01:52:29;101909.32;;;16.62;61.65
53635;BME280;39542;-34.932;138.594;2023-05-11T01:53:05;101909.72;;;16.65;61.55
53635;BME280;39542;-34.932;138.594;2023-05-11T01:53:42;101906.47;;;16.64;61.49
53635;BME280;39542;-34.932;138.594;2023-05-11T01:54:19;101905.18;;;16.60;61.63
53635;BME280;39542;-34.932;138.594;2023-05-11T01:54:55;101901.53;;;16.67;61.54
53635;BME280;39542;-34.932;138.594;2023-05-11T01:55:34;101905.47;;;16.63;61.60
53635;BME280;39542;-34.932;138.594;2023-05-11T01:56:11;101905.82;;;16.66;61.54
53635;BME280;39542;-34.932;138.594;2023-05-11T01:56:48;101906.69;;;16.64;61.59
53635;BME280;39542;-34.932;138.594;2023-05-11T01:57:23;101905.26;;;16.58;61.77
53635;BME280;39542;-34.932;138.594;2023-05-11T01:57:59;101906.96;;;16.65;61.61
53635;BME280;39542;-34.932;138.594;2023-05-11T01:58:37;101906.97;;;16.64;61.70
53635;BME280;39542;-34.932;138.594;2023-05-11T01:59:13;101909.41;;;16.64;61.66
53635;BME280;39542;-34.932;138.594;2023-05-11T01:59:49;101907.19;;;16.66;61.66
53635;BME280;39542;-34.932;138.594;2023-05-11T02:00:25;101908.69;;;16.62;61.74
53635;BME280;39542;-34.932;138.594;2023-05-11T02:00:59;101902.41;;;16.66;61.72
53635;BME280;39542;-34.932;138.594;2023-05-11T02:01:36;101905.06;;;16.70;61.55
53635;BME280;39542;-34.932;138.594;2023-05-11T02:02:12;101905.96;;;16.70;61.58
53635;BME280;39542;-34.932;138.594;2023-05-11T02:02:48;101904.70;;;16.67;61.69
53635;BME280;39542;-34.932;138.594;2023-05-11T02:03:23;101901.44;;;16.65;61.75
53635;BME280;39542;-34.932;138.594;2023-05-11T02:04:00;101902.60;;;16.66;61.71
53635;BME280;39542;-34.932;138.594;2023-05-11T02:04:36;101903.42;;;16.69;61.65
53635;BME280;39542;-34.932;138.594;2023-05-11T02:05:13;101899.22;;;16.61;61.84
53635;BME280;39542;-34.932;138.594;2023-05-11T02:05:50;101899.38;;;16.68;61.72
53635;BME280;39542;-34.932;138.594;2023-05-11T02:06:25;101900.12;;;16.64;61.86
53635;BME280;39542;-34.932;138.594;2023-05-11T02:07:01;101897.56;;;16.65;61.78
53635;BME280;39542;-34.932;138.594;2023-05-11T02:07:36;101893.22;;;16.67;61.78
53635;BME280;39542;-34.932;138.594;2023-05-11T02:08:12;101895.16;;;16.64;61.83
53635;BME280;39542;-34.932;138.594;2023-05-11T02:08:49;101894.89;;;16.67;61.75
53635;BME280;39542;-34.932;138.594;2023-05-11T02:09:24;101897.30;;;16.66;61.83
53635;BME280;39542;-34.932;138.594;2023-05-11T02:09:59;101892.17;;;16.69;61.78
53635;BME280;39542;-34.932;138.594;2023-05-11T02:10:35;101895.85;;;16.71;61.76
53635;BME280;39542;-34.932;138.594;2023-05-11T02:11:12;101894.43;;;16.69;61.81
53635;BME280;39542;-34.932;138.594;2023-05-11T02:11:48;101893.35;;;16.70;61.81
53635;BME280;39542;-34.932;138.594;2023-05-11T02:12:26;101894.30;;;16.69;61.80
53635;BME280;39542;-34.932;138.594;2023-05-11T02:13:02;101895.12;;;16.68;61.79
53635;BME280;39542;-34.932;138.594;2023-05-11T02:13:40;101894.36;;;16.67;61.81
53635;BME280;39542;-34.932;138.594;2023-05-11T02:14:17;101891.82;;;16.69;61.80
53635;BME280;39542;-34.932;138.594;2023-05-11T02:14:53;101889.63;;;16.66;61.85
53635;BME280;39542;-34.932;138.594;2023-05-11T02:15:29;101889.35;;;16.71;61.78
53635;BME280;39542;-34.932;138.594;2023-05-11T02:16:04;101889.62;;;16.64;61.94
53635;BME280;39542;-34.932;138.594;2023-05-11T02:16:39;101887.46;;;16.66;61.91
53635;BME280;39542;-34.932;138.594;2023-05-11T02:17:16;101885.26;;;16.72;61.79
53635;BME280;39542;-34.932;138.594;2023-05-11T02:17:52;101888.84;;;16.71;61.78
53635;BME280;39542;-34.932;138.594;2023-05-11T02:18:28;101884.93;;;16.69;61.87
53635;BME280;39542;-34.932;138.594;2023-05-11T02:19:03;101883.72;;;16.70;61.85
53635;BME280;39542;-34.932;138.594;2023-05-11T02:19:40;101883.10;;;16.69;61.89
53635;BME280;39542;-34.932;138.594;2023-05-11T02:20:16;101884.38;;;16.70;61.85
53635;BME280;39542;-34.932;138.594;2023-05-11T02:20:50;101884.19;;;16.67;61.89
53635;BME280;39542;-34.932;138.594;2023-05-11T02:21:27;101880.17;;;16.71;61.84
53635;BME280;39542;-34.932;138.594;2023-05-11T02:22:03;101879.14;;;16.73;61.81
53635;BME280;39542;-34.932;138.594;2023-05-11T02:22:38;101883.58;;;16.74;61.79
53635;BME280;39542;-34.932;138.594;2023-05-11T02:23:14;101878.24;;;16.70;61.84
53635;BME280;39542;-34.932;138.594;2023-05-11T02:23:50;101878.60;;;16.71;61.82
53635;BME280;39542;-34.932;138.594;2023-05-11T02:24:26;101880.71;;;16.67;61.91
53635;BME280;39542;-34.932;138.594;2023-05-11T02:25:01;101881.46;;;16.72;61.87
53635;BME280;39542;-34.932;138.594;2023-05-11T02:25:37;101880.13;;;16.75;61.80
53635;BME280;39542;-34.932;138.594;2023-05-11T02:26:13;101875.33;;;16.75;61.82
53635;BME280;39542;-34.932;138.594;2023-05-11T02:26:49;101875.09;;;16.73;61.91
53635;BME280;39542;-34.932;138.594;2023-05-11T02:27:23;101869.96;;;16.76;61.84
53635;BME280;39542;-34.932;138.594;2023-05-11T02:27:58;101868.19;;;16.73;61.93
53635;BME280;39542;-34.932;138.594;2023-05-11T02:28:32;101863.90;;;16.70;61.95
53635;BME280;39542;-34.932;138.594;2023-05-11T02:29:07;101868.96;;;16.75;61.85
53635;BME280;39542;-34.932;138.594;2023-05-11T02:29:41;101865.10;;;16.78;61.83
53635;BME280;39542;-34.932;138.594;2023-05-11T02:30:15;101865.07;;;16.79;61.82
53635;BME280;39542;-34.932;138.594;2023-05-11T02:30:52;101862.57;;;16.74;61.92
53635;BME280;39542;-34.932;138.594;2023-05-11T02:31:29;101863.47;;;16.71;62.01
53635;BME280;39542;-34.932;138.594;2023-05-11T02:32:08;101860.61;;;16.72;62.01
53635;BME280;39542;-34.932;138.594;2023-05-11T02:32:47;101860.85;;;16.74;61.96
53635;BME280;39542;-34.932;138.594;2023-05-11T02:33:34;101859.22;;;16.67;62.13
53635;BME280;39542;-34.932;138.594;2023-05-11T02:34:12;101852.76;;;16.65;62.16
53635;BME280;39542;-34.932;138.594;2023-05-11T02:34:56;101848.98;;;16.63;62.24
53635;BME280;39542;-34.932;138.594;2023-05-11T02:35:36;101847.84;;;16.74;62.01
53635;BME280;39542;-34.932;138.594;2023-05-11T02:36:11;101846.20;;;16.73;62.03
53635;BME280;39542;-34.932;138.594;2023-05-11T02:36:48;101844.43;;;16.72;61.96
53635;BME280;39542;-34.932;138.594;2023-05-11T02:37:26;101842.70;;;16.70;62.14
53635;BME280;39542;-34.932;138.594;2023-05-11T02:38:02;101844.03;;;16.77;61.96
53635;BME280;39542;-34.932;138.594;2023-05-11T02:38:38;101842.77;;;16.73;62.04
53635;BME280;39542;-34.932;138.594;2023-05-11T02:39:16;101839.51;;;16.72;62.06
53635;BME280;39542;-34.932;138.594;2023-05-11T02:39:57;101836.56;;;16.69;62.10
53635;BME280;39542;-34.932;138.594;2023-05-11T02:40:36;101834.70;;;16.68;62.09
53635;BME280;39542;-34.932;138.594;2023-05-11T02:41:17;101833.22;;;16.72;62.12
53635;BME280;39542;-34.932;138.594;2023-05-11T02:41:57;101834.00;;;16.69;62.08
53635;BME280;39542;-34.932;138.594;2023-05-11T02:42:37;101835.76;;;16.72;62.09
53635;BME280;39542;-34.932;138.594;2023-05-11T02:43:14;101837.95;;;16.80;61.91
53635;BME280;39542;-34.932;138.594;2023-05-11T02:43:52;101831.37;;;16.78;61.91
53635;BME280;39542;-34.932;138.594;2023-05-11T02:44:30;101832.97;;;16.80;61.84
53635;BME280;39542;-34.932;138.594;2023-05-11T02:45:10;101832.04;;;16.76;62.01
53635;BME280;39542;-34.932;138.594;2023-05-11T02:45:47;101830.52;;;16.74;62.05
53635;BME280;39542;-34.932;138.594;2023-05-11T02:46:28;101832.44;;;16.75;62.08
53635;BME280;39542;-34.932;138.594;2023-05-11T02:47:06;101826.29;;;16.74;62.10
53635;BME280;39542;-34.932;138.594;2023-05-11T02:47:46;101826.97;;;16.75;61.99
53635;BME280;39542;-34.932;138.594;2023-05-11T02:48:24;101825.05;;;16.74;62.09
53635;BME280;39542;-34.932;138.594;2023-05-11T02:49:01;101824.27;;;16.77;62.01
53635;BME280;39542;-34.932;138.594;2023-05-11T02:49:38;101823.36;;;16.78;61.98
53635;BME280;39542;-34.932;138.594;2023-05-11T02:50:13;101822.98;;;16.81;61.89
53635;BME280;39542;-34.932;138.594;2023-05-11T02:50:52;101816.53;;;16.78;61.99
53635;BME280;39542;-34.932;138.594;2023-05-11T02:51:31;101818.23;;;16.75;62.08
53635;BME280;39542;-34.932;138.594;2023-05-11T02:52:06;101814.57;;;16.76;62.05
53635;BME280;39542;-34.932;138.594;2023-05-11T02:52:46;101813.21;;;16.82;61.98
53635;BME280;39542;-34.932;138.594;2023-05-11T02:53:24;101820.97;;;16.81;61.95
53635;BME280;39542;-34.932;138.594;2023-05-11T02:54:01;101813.82;;;16.82;62.02
53635;BME280;39542;-34.932;138.594;2023-05-11T02:54:36;101808.77;;;16.81;61.96
53635;BME280;39542;-34.932;138.594;2023-05-11T02:55:13;101802.39;;;16.79;62.03
53635;BME280;39542;-34.932;138.594;2023-05-11T02:55:49;101802.72;;;16.78;62.03
53635;BME280;39542;-34.932;138.594;2023-05-11T02:56:25;101803.47;;;16.77;61.96
53635;BME280;39542;-34.932;138.594;2023-05-11T02:57:00;101803.00;;;16.81;61.92
53635;BME280;39542;-34.932;138.594;2023-05-11T02:57:34;101804.39;;;16.76;62.08
53635;BME280;39542;-34.932;138.594;2023-05-11T02:58:09;101805.52;;;16.75;62.16
53635;BME280;39542;-34.932;138.594;2023-05-11T02:58:44;101805.44;;;16.74;62.16
53635;BME280;39542;-34.932;138.594;2023-05-11T02:59:18;101800.29;;;16.76;62.03
53635;BME280;39542;-34.932;138.594;2023-05-11T02:59:54;101801.04;;;16.75;62.19
53635;BME280;39542;-34.932;138.594;2023-05-11T03:00:29;101798.62;;;16.77;62.10
53635;BME280;39542;-34.932;138.594;2023-05-11T03:01:05;101797.93;;;16.75;62.14
53635;BME280;39542;-34.932;138.594;2023-05-11T03:01:40;101796.52;;;16.74;62.21
53635;BME280;39542;-34.932;138.594;2023-05-11T03:02:15;101795.99;;;16.75;62.18
53635;BME280;39542;-34.932;138.594;2023-05-11T03:02:49;101794.21;;;16.81;62.10
53635;BME280;39542;-34.932;138.594;2023-05-11T03:03:24;101792.04;;;16.79;62.14
53635;BME280;39542;-34.932;138.594;2023-05-11T03:03:59;101794.50;;;16.77;62.17
53635;BME280;39542;-34.932;138.594;2023-05-11T03:04:36;101791.60;;;16.79;62.16
53635;BME280;39542;-34.932;138.594;2023-05-11T03:05:11;101791.03;;;16.81;62.04
53635;BME280;39542;-34.932;138.594;2023-05-11T03:05:45;101787.78;;;16.78;62.17